sensor_id;sensor_type;location;lat;lon;timestamp;P1;durP1;ratioP1;P2;durP2;ratioP2
40827;SDS011;26549;50.918;5.338;2023-06-19T00:00:53;3.65;;;2.42;;
40827;SDS011;26549;50.918;5.338;2023-06-19T00:03:19;3.45;;;2.25;;
40827;SDS011;26549;50.918;5.338;2023-06-19T00:05:45;2.90;;;2.40;;
40827;SDS011;26549;50.918;5.338;2023-06-19T00:08:10;3.05;;;2.47;;
40827;SDS011;26549;50.918;5.338;2023-06-19T00:10:36;3.22;;;2.33;;
40827;SDS011;26549;50.918;5.338;2023-06-19T00:13:02;3.92;;;2.30;;
40827;SDS011;26549;50.918;5.338;2023-06-19T00:15:27;3.40;;;2.45;;
40827;SDS011;26549;50.918;5.338;2023-06-19T00:17:55;3.47;;;2.53;;
40827;SDS011;26549;50.918;5.338;2023-06-19T00:20:22;4.00;;;2.58;;
40827;SDS011;26549;50.918;5.338;2023-06-19T00:22:49;3.15;;;2.45;;
40827;SDS011;26549;50.918;5.338;2023-06-19T00:25:17;2.97;;;2.35;;
40827;SDS011;26549;50.918;5.338;2023-06-19T00:27:44;5.78;;;2.50;;
40827;SDS011;26549;50.918;5.338;2023-06-19T00:30:10;2.83;;;2.15;;
40827;SDS011;26549;50.918;5.338;2023-06-19T00:32:36;3.50;;;2.35;;
40827;SDS011;26549;50.918;5.338;2023-06-19T00:35:12;4.25;;;2.60;;
40827;SDS011;26549;50.918;5.338;2023-06-19T00:37:39;3.67;;;2.75;;
40827;SDS011;26549;50.918;5.338;2023-06-19T00:40:06;3.60;;;2.33;;
40827;SDS011;26549;50.918;5.338;2023-06-19T00:42:35;3.03;;;2.40;;
40827;SDS011;26549;50.918;5.338;2023-06-19T00:45:01;2.95;;;2.38;;
40827;SDS011;26549;50.918;5.338;2023-06-19T00:47:27;3.22;;;2.13;;
40827;SDS011;26549;50.918;5.338;2023-06-19T00:49:52;4.43;;;2.55;;
40827;SDS011;26549;50.918;5.338;2023-06-19T00:52:18;4.43;;;2.60;;
40827;SDS011;26549;50.918;5.338;2023-06-19T00:54:44;3.50;;;2.55;;
40827;SDS011;26549;50.918;5.338;2023-06-19T00:57:10;3.17;;;2.40;;
40827;SDS011;26549;50.918;5.338;2023-06-19T00:59:36;3.90;;;2.42;;
40827;SDS011;26549;50.918;5.338;2023-06-19T01:02:02;4.32;;;3.13;;
40827;SDS011;26549;50.918;5.338;2023-06-19T01:04:28;4.57;;;2.45;;
40827;SDS011;26549;50.918;5.338;2023-06-19T01:06:54;2.90;;;2.30;;
40827;SDS011;26549;50.918;5.338;2023-06-19T01:09:48;3.08;;;2.28;;
40827;SDS011;26549;50.918;5.338;2023-06-19T01:12:19;2.88;;;2.30;;
40827;SDS011;26549;50.918;5.338;2023-06-19T01:15:00;2.55;;;2.20;;
40827;SDS011;26549;50.918;5.338;2023-06-19T01:17:28;2.80;;;2.00;;
40827;SDS011;26549;50.918;5.338;2023-06-19T01:19:57;2.83;;;2.30;;
40827;SDS011;26549;50.918;5.338;2023-06-19T01:22:30;2.65;;;2.08;;
40827;SDS011;26549;50.918;5.338;2023-06-19T01:24:56;3.28;;;2.05;;
40827;SDS011;26549;50.918;5.338;2023-06-19T01:27:23;5.07;;;2.40;;
40827;SDS011;26549;50.918;5.338;2023-06-19T01:29:58;3.53;;;2.30;;
40827;SDS011;26549;50.918;5.338;2023-06-19T01:32:28;3.58;;;2.88;;
40827;SDS011;26549;50.918;5.338;2023-06-19T01:34:55;3.50;;;2.40;;
40827;SDS011;26549;50.918;5.338;2023-06-19T01:37:24;3.75;;;2.92;;
40827;SDS011;26549;50.918;5.338;2023-06-19T01:39:54;2.38;;;2.03;;
40827;SDS011;26549;50.918;5.338;2023-06-19T01:42:22;3.25;;;2.38;;
40827;SDS011;26549;50.918;5.338;2023-06-19T01:44:48;2.83;;;2.05;;
40827;SDS011;26549;50.918;5.338;2023-06-19T01:47:15;6.68;;;2.55;;
40827;SDS011;26549;50.918;5.338;2023-06-19T01:49:45;2.70;;;2.10;;
40827;SDS011;26549;50.918;5.338;2023-06-19T01:52:11;2.42;;;2.00;;
40827;SDS011;26549;50.918;5.338;2023-06-19T01:54:38;3.50;;;2.25;;
40827;SDS011;26549;50.918;5.338;2023-06-19T01:57:04;2.63;;;2.10;;
40827;SDS011;26549;50.918;5.338;2023-06-19T01:59:30;5.07;;;2.15;;
40827;SDS011;26549;50.918;5.338;2023-06-19T02:01:56;3.85;;;2.20;;
40827;SDS011;26549;50.918;5.338;2023-06-19T02:04:22;3.40;;;2.17;;
40827;SDS011;26549;50.918;5.338;2023-06-19T02:06:47;3.45;;;2.00;;
40827;SDS011;26549;50.918;5.338;2023-06-19T02:09:13;2.80;;;2.05;;
40827;SDS011;26549;50.918;5.338;2023-06-19T02:11:39;2.65;;;1.88;;
40827;SDS011;26549;50.918;5.338;2023-06-19T02:14:05;7.63;;;2.20;;
40827;SDS011;26549;50.918;5.338;2023-06-19T02:16:30;4.63;;;2.40;;
40827;SDS011;26549;50.918;5.338;2023-06-19T02:18:56;4.63;;;2.50;;
40827;SDS011;26549;50.918;5.338;2023-06-19T02:21:22;3.63;;;2.00;;
40827;SDS011;26549;50.918;5.338;2023-06-19T02:23:48;3.10;;;2.05;;
40827;SDS011;26549;50.918;5.338;2023-06-19T02:26:15;2.38;;;1.90;;
40827;SDS011;26549;50.918;5.338;2023-06-19T02:28:40;5.03;;;2.22;;
40827;SDS011;26549;50.918;5.338;2023-06-19T02:31:06;4.28;;;2.20;;
40827;SDS011;26549;50.918;5.338;2023-06-19T02:33:32;3.47;;;2.10;;
40827;SDS011;26549;50.918;5.338;2023-06-19T02:35:58;2.33;;;1.95;;
40827;SDS011;26549;50.918;5.338;2023-06-19T02:38:24;4.55;;;2.50;;
40827;SDS011;26549;50.918;5.338;2023-06-19T02:40:50;2.60;;;1.90;;
40827;SDS011;26549;50.918;5.338;2023-06-19T02:43:16;2.28;;;1.55;;
40827;SDS011;26549;50.918;5.338;2023-06-19T02:45:42;3.13;;;1.88;;
40827;SDS011;26549;50.918;5.338;2023-06-19T02:48:07;2.97;;;2.05;;
40827;SDS011;26549;50.918;5.338;2023-06-19T02:50:35;2.13;;;1.67;;
40827;SDS011;26549;50.918;5.338;2023-06-19T02:53:00;3.15;;;2.28;;
40827;SDS011;26549;50.918;5.338;2023-06-19T02:55:26;2.92;;;2.10;;
40827;SDS011;26549;50.918;5.338;2023-06-19T02:57:52;2.85;;;2.10;;
40827;SDS011;26549;50.918;5.338;2023-06-19T03:00:18;2.80;;;2.03;;
40827;SDS011;26549;50.918;5.338;2023-06-19T03:02:44;3.10;;;2.40;;
40827;SDS011;26549;50.918;5.338;2023-06-19T03:05:13;3.38;;;2.10;;
40827;SDS011;26549;50.918;5.338;2023-06-19T03:07:42;3.78;;;2.20;;
40827;SDS011;26549;50.918;5.338;2023-06-19T03:10:08;3.33;;;1.75;;
40827;SDS011;26549;50.918;5.338;2023-06-19T03:12:34;4.68;;;2.08;;
40827;SDS011;26549;50.918;5.338;2023-06-19T03:15:00;2.58;;;2.28;;
40827;SDS011;26549;50.918;5.338;2023-06-19T03:17:25;3.00;;;2.17;;
40827;SDS011;26549;50.918;5.338;2023-06-19T03:19:51;4.60;;;3.22;;
40827;SDS011;26549;50.918;5.338;2023-06-19T03:22:17;4.28;;;2.10;;
40827;SDS011;26549;50.918;5.338;2023-06-19T03:24:44;3.75;;;2.38;;
40827;SDS011;26549;50.918;5.338;2023-06-19T03:27:10;3.85;;;2.00;;
40827;SDS011;26549;50.918;5.338;2023-06-19T03:29:36;3.67;;;2.17;;
40827;SDS011;26549;50.918;5.338;2023-06-19T03:32:01;3.50;;;2.17;;
40827;SDS011;26549;50.918;5.338;2023-06-19T03:34:27;3.42;;;1.65;;
40827;SDS011;26549;50.918;5.338;2023-06-19T03:36:53;2.10;;;1.90;;
40827;SDS011;26549;50.918;5.338;2023-06-19T03:39:19;4.32;;;1.75;;
40827;SDS011;26549;50.918;5.338;2023-06-19T03:41:44;2.60;;;2.00;;
40827;SDS011;26549;50.918;5.338;2023-06-19T03:44:10;3.30;;;2.03;;
40827;SDS011;26549;50.918;5.338;2023-06-19T03:46:36;2.53;;;1.60;;
40827;SDS011;26549;50.918;5.338;2023-06-19T03:49:01;4.90;;;2.05;;
40827;SDS011;26549;50.918;5.338;2023-06-19T03:51:29;4.45;;;2.03;;
40827;SDS011;26549;50.918;5.338;2023-06-19T03:53:56;2.22;;;1.65;;
40827;SDS011;26549;50.918;5.338;2023-06-19T03:56:21;5.03;;;2.17;;
40827;SDS011;26549;50.918;5.338;2023-06-19T03:58:47;4.18;;;2.03;;
40827;SDS011;26549;50.918;5.338;2023-06-19T04:01:13;4.55;;;2.28;;
40827;SDS011;26549;50.918;5.338;2023-06-19T04:03:38;3.33;;;2.72;;
40827;SDS011;26549;50.918;5.338;2023-06-19T04:06:04;6.78;;;2.28;;
40827;SDS011;26549;50.918;5.338;2023-06-19T04:08:30;3.58;;;2.20;;
40827;SDS011;26549;50.918;5.338;2023-06-19T04:10:56;4.38;;;2.65;;
40827;SDS011;26549;50.918;5.338;2023-06-19T04:13:21;4.50;;;2.28;;
40827;SDS011;26549;50.918;5.338;2023-06-19T04:15:47;6.65;;;2.50;;
40827;SDS011;26549;50.918;5.338;2023-06-19T04:18:13;4.68;;;2.30;;
40827;SDS011;26549;50.918;5.338;2023-06-19T04:20:38;4.47;;;2.67;;
40827;SDS011;26549;50.918;5.338;2023-06-19T04:23:05;6.05;;;3.08;;
40827;SDS011;26549;50.918;5.338;2023-06-19T04:25:31;5.22;;;2.63;;
40827;SDS011;26549;50.918;5.338;2023-06-19T04:27:56;4.22;;;2.60;;
40827;SDS011;26549;50.918;5.338;2023-06-19T04:30:22;4.45;;;3.05;;
40827;SDS011;26549;50.918;5.338;2023-06-19T04:32:48;7.75;;;2.67;;
40827;SDS011;26549;50.918;5.338;2023-06-19T04:35:13;4.85;;;3.10;;
40827;SDS011;26549;50.918;5.338;2023-06-19T04:37:39;4.25;;;2.90;;
40827;SDS011;26549;50.918;5.338;2023-06-19T04:40:05;4.20;;;2.90;;
40827;SDS011;26549;50.918;5.338;2023-06-19T04:42:33;4.00;;;3.22;;
40827;SDS011;26549;50.918;5.338;2023-06-19T04:44:58;4.28;;;3.30;;
40827;SDS011;26549;50.918;5.338;2023-06-19T04:47:25;4.70;;;3.38;;
40827;SDS011;26549;50.918;5.338;2023-06-19T04:49:50;7.20;;;3.17;;
40827;SDS011;26549;50.918;5.338;2023-06-19T04:52:16;4.32;;;2.92;;
40827;SDS011;26549;50.918;5.338;2023-06-19T04:54:43;6.90;;;2.90;;
40827;SDS011;26549;50.918;5.338;2023-06-19T04:57:09;3.42;;;3.13;;
40827;SDS011;26549;50.918;5.338;2023-06-19T04:59:35;5.20;;;2.92;;
40827;SDS011;26549;50.918;5.338;2023-06-19T05:02:01;5.85;;;3.10;;
40827;SDS011;26549;50.918;5.338;2023-06-19T05:04:27;4.07;;;3.58;;
40827;SDS011;26549;50.918;5.338;2023-06-19T05:06:58;4.75;;;3.08;;
40827;SDS011;26549;50.918;5.338;2023-06-19T05:09:24;5.70;;;3.25;;
40827;SDS011;26549;50.918;5.338;2023-06-19T05:11:50;4.25;;;3.47;;
40827;SDS011;26549;50.918;5.338;2023-06-19T05:14:16;5.63;;;3.50;;
40827;SDS011;26549;50.918;5.338;2023-06-19T05:16:42;6.20;;;3.28;;
40827;SDS011;26549;50.918;5.338;2023-06-19T05:19:08;6.07;;;3.50;;
40827;SDS011;26549;50.918;5.338;2023-06-19T05:21:34;8.32;;;3.30;;
40827;SDS011;26549;50.918;5.338;2023-06-19T05:23:59;7.18;;;3.35;;
40827;SDS011;26549;50.918;5.338;2023-06-19T05:26:25;4.47;;;3.70;;
40827;SDS011;26549;50.918;5.338;2023-06-19T05:28:51;3.85;;;2.50;;
40827;SDS011;26549;50.918;5.338;2023-06-19T05:31:17;6.22;;;4.32;;
40827;SDS011;26549;50.918;5.338;2023-06-19T05:33:43;7.72;;;3.30;;
40827;SDS011;26549;50.918;5.338;2023-06-19T05:36:10;5.00;;;3.25;;
40827;SDS011;26549;50.918;5.338;2023-06-19T05:38:35;6.03;;;3.70;;
40827;SDS011;26549;50.918;5.338;2023-06-19T05:41:01;3.50;;;3.17;;
40827;SDS011;26549;50.918;5.338;2023-06-19T05:43:28;4.75;;;3.70;;
40827;SDS011;26549;50.918;5.338;2023-06-19T05:45:54;5.55;;;3.45;;
40827;SDS011;26549;50.918;5.338;2023-06-19T05:48:24;3.80;;;3.00;;
40827;SDS011;26549;50.918;5.338;2023-06-19T05:50:50;5.43;;;3.78;;
40827;SDS011;26549;50.918;5.338;2023-06-19T05:53:16;3.35;;;2.67;;
40827;SDS011;26549;50.918;5.338;2023-06-19T05:55:42;6.78;;;2.95;;
40827;SDS011;26549;50.918;5.338;2023-06-19T05:58:08;7.00;;;3.03;;
40827;SDS011;26549;50.918;5.338;2023-06-19T06:00:34;3.13;;;2.40;;
40827;SDS011;26549;50.918;5.338;2023-06-19T06:03:00;5.63;;;2.92;;
40827;SDS011;26549;50.918;5.338;2023-06-19T06:05:27;2.85;;;2.55;;
40827;SDS011;26549;50.918;5.338;2023-06-19T06:07:53;4.07;;;2.47;;
40827;SDS011;26549;50.918;5.338;2023-06-19T06:10:23;4.57;;;2.60;;
40827;SDS011;26549;50.918;5.338;2023-06-19T06:12:50;4.50;;;2.58;;
40827;SDS011;26549;50.918;5.338;2023-06-19T06:15:16;3.63;;;2.50;;
40827;SDS011;26549;50.918;5.338;2023-06-19T06:17:42;4.63;;;2.85;;
40827;SDS011;26549;50.918;5.338;2023-06-19T06:20:08;3.70;;;3.03;;
40827;SDS011;26549;50.918;5.338;2023-06-19T06:22:40;5.32;;;2.80;;
40827;SDS011;26549;50.918;5.338;2023-06-19T06:25:07;6.97;;;2.97;;
40827;SDS011;26549;50.918;5.338;2023-06-19T06:27:35;5.53;;;3.17;;
40827;SDS011;26549;50.918;5.338;2023-06-19T06:30:02;4.03;;;2.80;;
40827;SDS011;26549;50.918;5.338;2023-06-19T06:32:28;6.35;;;3.28;;
40827;SDS011;26549;50.918;5.338;2023-06-19T06:34:56;4.53;;;3.00;;
40827;SDS011;26549;50.918;5.338;2023-06-19T06:37:22;6.93;;;2.90;;
40827;SDS011;26549;50.918;5.338;2023-06-19T06:39:48;4.13;;;2.95;;
40827;SDS011;26549;50.918;5.338;2023-06-19T06:42:17;7.45;;;3.58;;
40827;SDS011;26549;50.918;5.338;2023-06-19T06:44:44;6.90;;;3.08;;
40827;SDS011;26549;50.918;5.338;2023-06-19T06:47:10;3.63;;;3.33;;
40827;SDS011;26549;50.918;5.338;2023-06-19T06:49:36;5.13;;;3.03;;
40827;SDS011;26549;50.918;5.338;2023-06-19T06:52:05;5.15;;;3.25;;
40827;SDS011;26549;50.918;5.338;2023-06-19T06:54:32;7.07;;;3.55;;
40827;SDS011;26549;50.918;5.338;2023-06-19T06:56:58;12.05;;;3.38;;
40827;SDS011;26549;50.918;5.338;2023-06-19T06:59:25;5.18;;;3.40;;
40827;SDS011;26549;50.918;5.338;2023-06-19T07:01:52;5.53;;;3.30;;
40827;SDS011;26549;50.918;5.338;2023-06-19T07:04:18;7.97;;;3.33;;
40827;SDS011;26549;50.918;5.338;2023-06-19T07:06:44;6.22;;;3.85;;
40827;SDS011;26549;50.918;5.338;2023-06-19T07:09:10;4.30;;;3.65;;
40827;SDS011;26549;50.918;5.338;2023-06-19T07:11:36;3.78;;;2.90;;
40827;SDS011;26549;50.918;5.338;2023-06-19T07:14:02;6.82;;;4.80;;
40827;SDS011;26549;50.918;5.338;2023-06-19T07:16:27;4.90;;;3.83;;
40827;SDS011;26549;50.918;5.338;2023-06-19T07:18:53;5.15;;;3.60;;
40827;SDS011;26549;50.918;5.338;2023-06-19T07:21:19;4.00;;;2.65;;
40827;SDS011;26549;50.918;5.338;2023-06-19T07:23:45;4.20;;;3.45;;
40827;SDS011;26549;50.918;5.338;2023-06-19T07:26:13;4.35;;;3.47;;
40827;SDS011;26549;50.918;5.338;2023-06-19T07:28:40;5.15;;;3.50;;
40827;SDS011;26549;50.918;5.338;2023-06-19T07:31:06;5.10;;;3.30;;
40827;SDS011;26549;50.918;5.338;2023-06-19T07:33:31;6.15;;;3.33;;
40827;SDS011;26549;50.918;5.338;2023-06-19T07:35:57;6.30;;;3.05;;
40827;SDS011;26549;50.918;5.338;2023-06-19T07:38:23;6.53;;;4.13;;
40827;SDS011;26549;50.918;5.338;2023-06-19T07:40:49;6.25;;;3.17;;
40827;SDS011;26549;50.918;5.338;2023-06-19T07:43:14;7.18;;;3.67;;
40827;SDS011;26549;50.918;5.338;2023-06-19T07:45:40;5.93;;;3.80;;
40827;SDS011;26549;50.918;5.338;2023-06-19T07:48:06;5.05;;;3.67;;
40827;SDS011;26549;50.918;5.338;2023-06-19T07:50:31;7.47;;;4.65;;
40827;SDS011;26549;50.918;5.338;2023-06-19T07:52:57;5.10;;;3.67;;
40827;SDS011;26549;50.918;5.338;2023-06-19T07:55:23;7.97;;;3.97;;
40827;SDS011;26549;50.918;5.338;2023-06-19T07:57:49;4.07;;;3.45;;
40827;SDS011;26549;50.918;5.338;2023-06-19T08:00:17;5.55;;;4.20;;
40827;SDS011;26549;50.918;5.338;2023-06-19T08:02:43;5.18;;;4.32;;
40827;SDS011;26549;50.918;5.338;2023-06-19T08:05:09;4.72;;;3.47;;
40827;SDS011;26549;50.918;5.338;2023-06-19T08:07:35;7.95;;;3.50;;
40827;SDS011;26549;50.918;5.338;2023-06-19T08:10:01;6.43;;;3.65;;
40827;SDS011;26549;50.918;5.338;2023-06-19T08:12:29;3.20;;;2.55;;
40827;SDS011;26549;50.918;5.338;2023-06-19T08:14:55;4.28;;;3.08;;
40827;SDS011;26549;50.918;5.338;2023-06-19T08:17:21;5.47;;;3.50;;
40827;SDS011;26549;50.918;5.338;2023-06-19T08:19:47;6.38;;;3.78;;
40827;SDS011;26549;50.918;5.338;2023-06-19T08:22:12;3.25;;;2.85;;
40827;SDS011;26549;50.918;5.338;2023-06-19T08:24:38;6.53;;;3.58;;
40827;SDS011;26549;50.918;5.338;2023-06-19T08:27:06;8.30;;;3.67;;
40827;SDS011;26549;50.918;5.338;2023-06-19T08:29:32;5.55;;;3.28;;
40827;SDS011;26549;50.918;5.338;2023-06-19T08:31:58;4.30;;;3.33;;
40827;SDS011;26549;50.918;5.338;2023-06-19T08:34:24;4.63;;;2.65;;
40827;SDS011;26549;50.918;5.338;2023-06-19T08:36:50;6.13;;;3.85;;
40827;SDS011;26549;50.918;5.338;2023-06-19T08:39:15;6.22;;;2.78;;
40827;SDS011;26549;50.918;5.338;2023-06-19T08:41:41;4.18;;;3.08;;
40827;SDS011;26549;50.918;5.338;2023-06-19T08:44:08;4.30;;;3.15;;
40827;SDS011;26549;50.918;5.338;2023-06-19T08:46:35;5.68;;;2.90;;
40827;SDS011;26549;50.918;5.338;2023-06-19T08:49:02;4.22;;;2.90;;
40827;SDS011;26549;50.918;5.338;2023-06-19T08:51:31;4.82;;;2.58;;
40827;SDS011;26549;50.918;5.338;2023-06-19T08:54:06;3.80;;;2.95;;
40827;SDS011;26549;50.918;5.338;2023-06-19T08:56:33;3.15;;;2.30;;
40827;SDS011;26549;50.918;5.338;2023-06-19T08:59:13;3.88;;;2.50;;
40827;SDS011;26549;50.918;5.338;2023-06-19T09:01:45;5.05;;;2.75;;
40827;SDS011;26549;50.918;5.338;2023-06-19T09:04:17;4.85;;;2.70;;
40827;SDS011;26549;50.918;5.338;2023-06-19T09:06:51;4.57;;;2.95;;
40827;SDS011;26549;50.918;5.338;2023-06-19T09:09:18;6.13;;;2.80;;
40827;SDS011;26549;50.918;5.338;2023-06-19T09:12:04;4.15;;;3.33;;
40827;SDS011;26549;50.918;5.338;2023-06-19T09:14:42;3.50;;;3.00;;
40827;SDS011;26549;50.918;5.338;2023-06-19T09:17:19;4.88;;;3.55;;
40827;SDS011;26549;50.918;5.338;2023-06-19T09:19:49;4.78;;;2.92;;
40827;SDS011;26549;50.918;5.338;2023-06-19T09:22:17;7.47;;;3.30;;
40827;SDS011;26549;50.918;5.338;2023-06-19T09:24:44;3.70;;;2.90;;
40827;SDS011;26549;50.918;5.338;2023-06-19T09:27:11;3.17;;;2.60;;
40827;SDS011;26549;50.918;5.338;2023-06-19T09:29:42;5.90;;;3.13;;
40827;SDS011;26549;50.918;5.338;2023-06-19T09:32:19;4.63;;;3.00;;
40827;SDS011;26549;50.918;5.338;2023-06-19T09:34:46;6.03;;;2.72;;
40827;SDS011;26549;50.918;5.338;2023-06-19T09:37:14;5.38;;;3.00;;
40827;SDS011;26549;50.918;5.338;2023-06-19T09:39:40;5.00;;;2.40;;
40827;SDS011;26549;50.918;5.338;2023-06-19T09:42:08;4.13;;;2.80;;
40827;SDS011;26549;50.918;5.338;2023-06-19T09:44:43;10.52;;;3.38;;
40827;SDS011;26549;50.918;5.338;2023-06-19T09:47:23;4.18;;;2.97;;
40827;SDS011;26549;50.918;5.338;2023-06-19T09:49:54;3.83;;;2.50;;
40827;SDS011;26549;50.918;5.338;2023-06-19T09:52:21;3.75;;;2.85;;
40827;SDS011;26549;50.918;5.338;2023-06-19T09:54:49;4.10;;;2.90;;
40827;SDS011;26549;50.918;5.338;2023-06-19T09:57:20;4.22;;;2.97;;
40827;SDS011;26549;50.918;5.338;2023-06-19T09:59:52;4.75;;;3.08;;
40827;SDS011;26549;50.918;5.338;2023-06-19T10:02:20;4.30;;;2.65;;
40827;SDS011;26549;50.918;5.338;2023-06-19T10:04:49;3.85;;;2.88;;
40827;SDS011;26549;50.918;5.338;2023-06-19T10:07:21;5.60;;;3.58;;
40827;SDS011;26549;50.918;5.338;2023-06-19T10:12:46;4.13;;;2.85;;
40827;SDS011;26549;50.918;5.338;2023-06-19T10:17:49;5.63;;;2.70;;
40827;SDS011;26549;50.918;5.338;2023-06-19T10:25:28;3.70;;;2.95;;
40827;SDS011;26549;50.918;5.338;2023-06-19T10:27:55;4.03;;;2.78;;
40827;SDS011;26549;50.918;5.338;2023-06-19T10:30:21;6.88;;;3.30;;
40827;SDS011;26549;50.918;5.338;2023-06-19T10:32:47;7.03;;;3.42;;
40827;SDS011;26549;50.918;5.338;2023-06-19T10:35:14;7.85;;;2.75;;
40827;SDS011;26549;50.918;5.338;2023-06-19T10:37:41;5.25;;;3.08;;
40827;SDS011;26549;50.918;5.338;2023-06-19T10:40:07;5.90;;;3.20;;
40827;SDS011;26549;50.918;5.338;2023-06-19T10:42:37;4.72;;;3.17;;
40827;SDS011;26549;50.918;5.338;2023-06-19T10:45:04;4.57;;;3.00;;
40827;SDS011;26549;50.918;5.338;2023-06-19T10:47:32;5.05;;;3.30;;
40827;SDS011;26549;50.918;5.338;2023-06-19T10:49:58;5.57;;;3.50;;
40827;SDS011;26549;50.918;5.338;2023-06-19T10:52:24;7.35;;;3.55;;
40827;SDS011;26549;50.918;5.338;2023-06-19T10:54:53;7.50;;;3.13;;
40827;SDS011;26549;50.918;5.338;2023-06-19T10:57:30;5.00;;;2.88;;
40827;SDS011;26549;50.918;5.338;2023-06-19T10:59:57;5.28;;;3.42;;
40827;SDS011;26549;50.918;5.338;2023-06-19T11:02:26;3.40;;;2.60;;
40827;SDS011;26549;50.918;5.338;2023-06-19T11:04:53;4.47;;;3.10;;
40827;SDS011;26549;50.918;5.338;2023-06-19T11:07:19;4.57;;;2.78;;
40827;SDS011;26549;50.918;5.338;2023-06-19T11:09:45;4.88;;;3.22;;
40827;SDS011;26549;50.918;5.338;2023-06-19T11:12:11;4.60;;;3.20;;
40827;SDS011;26549;50.918;5.338;2023-06-19T11:14:37;6.13;;;3.08;;
40827;SDS011;26549;50.918;5.338;2023-06-19T11:17:05;8.93;;;3.42;;
40827;SDS011;26549;50.918;5.338;2023-06-19T11:19:31;6.50;;;3.40;;
40827;SDS011;26549;50.918;5.338;2023-06-19T11:22:00;3.88;;;2.95;;
40827;SDS011;26549;50.918;5.338;2023-06-19T11:24:28;7.85;;;3.97;;
40827;SDS011;26549;50.918;5.338;2023-06-19T11:26:56;6.05;;;4.15;;
40827;SDS011;26549;50.918;5.338;2023-06-19T11:29:29;5.53;;;3.30;;
40827;SDS011;26549;50.918;5.338;2023-06-19T11:32:05;10.05;;;3.83;;
40827;SDS011;26549;50.918;5.338;2023-06-19T11:34:37;5.00;;;3.40;;
40827;SDS011;26549;50.918;5.338;2023-06-19T11:39:39;4.55;;;3.10;;
40827;SDS011;26549;50.918;5.338;2023-06-19T11:42:07;6.93;;;3.35;;
40827;SDS011;26549;50.918;5.338;2023-06-19T11:44:33;6.60;;;3.38;;
40827;SDS011;26549;50.918;5.338;2023-06-19T11:46:59;7.65;;;3.30;;
40827;SDS011;26549;50.918;5.338;2023-06-19T11:49:25;6.32;;;3.05;;
40827;SDS011;26549;50.918;5.338;2023-06-19T11:51:53;4.75;;;3.60;;
40827;SDS011;26549;50.918;5.338;2023-06-19T11:54:19;6.95;;;3.17;;
40827;SDS011;26549;50.918;5.338;2023-06-19T11:56:45;4.53;;;3.40;;
40827;SDS011;26549;50.918;5.338;2023-06-19T11:59:12;6.85;;;3.63;;
40827;SDS011;26549;50.918;5.338;2023-06-19T12:01:39;8.27;;;3.88;;
40827;SDS011;26549;50.918;5.338;2023-06-19T12:04:05;6.95;;;3.95;;
40827;SDS011;26549;50.918;5.338;2023-06-19T12:06:31;5.18;;;3.50;;
40827;SDS011;26549;50.918;5.338;2023-06-19T12:08:58;5.70;;;3.10;;
40827;SDS011;26549;50.918;5.338;2023-06-19T12:11:24;4.55;;;3.00;;
40827;SDS011;26549;50.918;5.338;2023-06-19T12:13:50;5.18;;;3.38;;
40827;SDS011;26549;50.918;5.338;2023-06-19T12:16:16;7.13;;;3.33;;
40827;SDS011;26549;50.918;5.338;2023-06-19T12:18:42;8.07;;;3.30;;
40827;SDS011;26549;50.918;5.338;2023-06-19T12:21:08;6.97;;;3.40;;
40827;SDS011;26549;50.918;5.338;2023-06-19T12:23:33;5.05;;;3.42;;
40827;SDS011;26549;50.918;5.338;2023-06-19T12:25:59;7.97;;;3.17;;
40827;SDS011;26549;50.918;5.338;2023-06-19T12:28:25;4.47;;;3.85;;
40827;SDS011;26549;50.918;5.338;2023-06-19T12:30:52;5.15;;;3.10;;
40827;SDS011;26549;50.918;5.338;2023-06-19T12:33:19;5.22;;;2.90;;
40827;SDS011;26549;50.918;5.338;2023-06-19T12:35:48;4.70;;;3.42;;
40827;SDS011;26549;50.918;5.338;2023-06-19T12:38:14;7.57;;;4.13;;
40827;SDS011;26549;50.918;5.338;2023-06-19T12:40:40;9.43;;;2.95;;
40827;SDS011;26549;50.918;5.338;2023-06-19T12:43:06;5.65;;;3.60;;
40827;SDS011;26549;50.918;5.338;2023-06-19T12:45:32;5.00;;;3.25;;
40827;SDS011;26549;50.918;5.338;2023-06-19T12:47:58;4.30;;;3.10;;
40827;SDS011;26549;50.918;5.338;2023-06-19T12:50:23;5.10;;;3.08;;
40827;SDS011;26549;50.918;5.338;2023-06-19T12:52:49;5.10;;;3.58;;
40827;SDS011;26549;50.918;5.338;2023-06-19T12:55:16;5.32;;;3.10;;
40827;SDS011;26549;50.918;5.338;2023-06-19T12:57:41;4.32;;;2.97;;
40827;SDS011;26549;50.918;5.338;2023-06-19T13:00:11;5.53;;;3.08;;
40827;SDS011;26549;50.918;5.338;2023-06-19T13:02:38;5.72;;;2.92;;
40827;SDS011;26549;50.918;5.338;2023-06-19T13:05:08;4.72;;;3.35;;
40827;SDS011;26549;50.918;5.338;2023-06-19T13:07:35;8.43;;;3.38;;
40827;SDS011;26549;50.918;5.338;2023-06-19T13:10:00;4.28;;;2.70;;
40827;SDS011;26549;50.918;5.338;2023-06-19T13:12:26;7.35;;;3.15;;
40827;SDS011;26549;50.918;5.338;2023-06-19T13:14:52;3.97;;;3.03;;
40827;SDS011;26549;50.918;5.338;2023-06-19T13:17:18;6.80;;;3.47;;
40827;SDS011;26549;50.918;5.338;2023-06-19T13:19:44;6.25;;;3.10;;
40827;SDS011;26549;50.918;5.338;2023-06-19T13:22:10;4.07;;;2.70;;
40827;SDS011;26549;50.918;5.338;2023-06-19T13:24:35;5.18;;;3.13;;
40827;SDS011;26549;50.918;5.338;2023-06-19T13:27:01;4.70;;;2.58;;
40827;SDS011;26549;50.918;5.338;2023-06-19T13:29:27;4.75;;;3.00;;
40827;SDS011;26549;50.918;5.338;2023-06-19T13:31:53;6.47;;;2.92;;
40827;SDS011;26549;50.918;5.338;2023-06-19T13:34:19;4.65;;;2.95;;
40827;SDS011;26549;50.918;5.338;2023-06-19T13:36:47;4.65;;;3.45;;
40827;SDS011;26549;50.918;5.338;2023-06-19T13:39:13;4.38;;;2.65;;
40827;SDS011;26549;50.918;5.338;2023-06-19T13:41:40;5.45;;;2.83;;
40827;SDS011;26549;50.918;5.338;2023-06-19T13:44:08;6.93;;;2.72;;
40827;SDS011;26549;50.918;5.338;2023-06-19T13:46:34;3.88;;;2.50;;
40827;SDS011;26549;50.918;5.338;2023-06-19T13:49:02;3.67;;;2.50;;
40827;SDS011;26549;50.918;5.338;2023-06-19T13:51:28;3.35;;;2.05;;
40827;SDS011;26549;50.918;5.338;2023-06-19T13:53:54;3.50;;;2.50;;
40827;SDS011;26549;50.918;5.338;2023-06-19T13:56:19;4.70;;;2.38;;
40827;SDS011;26549;50.918;5.338;2023-06-19T13:58:45;6.05;;;2.35;;
40827;SDS011;26549;50.918;5.338;2023-06-19T14:01:11;4.07;;;2.40;;
40827;SDS011;26549;50.918;5.338;2023-06-19T14:03:38;3.85;;;2.95;;
40827;SDS011;26549;50.918;5.338;2023-06-19T14:06:05;4.20;;;2.08;;
40827;SDS011;26549;50.918;5.338;2023-06-19T14:08:31;4.35;;;2.50;;
40827;SDS011;26549;50.918;5.338;2023-06-19T14:10:58;5.28;;;2.28;;
40827;SDS011;26549;50.918;5.338;2023-06-19T14:13:23;7.20;;;2.45;;
40827;SDS011;26549;50.918;5.338;2023-06-19T14:15:49;7.05;;;2.38;;
40827;SDS011;26549;50.918;5.338;2023-06-19T14:18:16;3.15;;;2.10;;
40827;SDS011;26549;50.918;5.338;2023-06-19T14:20:42;4.75;;;2.95;;
40827;SDS011;26549;50.918;5.338;2023-06-19T14:23:07;3.67;;;2.25;;
40827;SDS011;26549;50.918;5.338;2023-06-19T14:25:34;4.13;;;2.00;;
40827;SDS011;26549;50.918;5.338;2023-06-19T14:27:59;5.68;;;3.22;;
40827;SDS011;26549;50.918;5.338;2023-06-19T14:30:25;2.22;;;1.90;;
40827;SDS011;26549;50.918;5.338;2023-06-19T14:32:51;3.65;;;2.20;;
40827;SDS011;26549;50.918;5.338;2023-06-19T14:35:17;5.32;;;2.78;;
40827;SDS011;26549;50.918;5.338;2023-06-19T14:37:42;7.60;;;2.42;;
40827;SDS011;26549;50.918;5.338;2023-06-19T14:40:09;3.70;;;1.98;;
40827;SDS011;26549;50.918;5.338;2023-06-19T14:42:35;3.72;;;2.47;;
40827;SDS011;26549;50.918;5.338;2023-06-19T14:45:00;2.63;;;2.00;;
40827;SDS011;26549;50.918;5.338;2023-06-19T14:47:26;3.17;;;2.05;;
40827;SDS011;26549;50.918;5.338;2023-06-19T14:49:52;6.10;;;2.75;;
40827;SDS011;26549;50.918;5.338;2023-06-19T14:52:20;3.60;;;2.20;;
40827;SDS011;26549;50.918;5.338;2023-06-19T14:54:46;11.10;;;2.95;;
40827;SDS011;26549;50.918;5.338;2023-06-19T14:57:12;3.60;;;2.40;;
40827;SDS011;26549;50.918;5.338;2023-06-19T14:59:38;3.33;;;2.28;;